VHHH/HKG METAR and TAF weather

Enter ICAO airport designator
Station Type Date Time Source
VHHH METAR 2021/09/24 00:30 UTC NOAA

VHHH 240030Z 09010KT 9999 FEW020 30/25 Q1014 NOSIG


Station Type Date Time Source
VHHH Decoded METAR 2021/09/24 00:30 UTC NOAA

Hong Kong Inter-National Airport, Hong Kong (VHHH) 22-20N 114-11E 24M
Sep 23, 2021 - 08:30 PM EDT / 2021.09.24 0030 UTC
Wind: from the E (090 degrees) at 12 MPH (10 KT):0
Visibility: greater than 7 mile(s):0
Sky conditions: mostly clear
Temperature: 86 F (30 C)
Heat index: 96.8 F (36.0 C):1
Dew Point: 77 F (25 C)
Relative Humidity: 74%
Pressure (altimeter): 29.94 in. Hg (1014 hPa)
ob: VHHH 240030Z 09010KT 9999 FEW020 30/25 Q1014 NOSIG
cycle: 0

Station Type Date Time Source
VHHH TAF 2021/09/23 20:00 UTC NOAA

TAF
AMD VHHH 231957Z 2320/2424 10010KT 9999 FEW015 SCT025 TX32/2406Z TN27/2322Z TN27/2422Z
TEMPO 2320/2402 3000 TSRA SHRA FEW008CB SCT020 BKN040
TEMPO 2403/2409 4000 SHRA FEW010CB SCT020
TEMPO 2418/2424 4000 SHRA FEW010CB SCT020

Example: see airport list